createdAt,value
2019-01-23T00:01:37.917Z,15.77
2019-01-23T00:04:11.857Z,23.23
2019-01-23T00:06:45.116Z,17.57
2019-01-23T00:09:18.318Z,18.95
2019-01-23T00:11:51.935Z,16.57
2019-01-23T00:14:25.056Z,21.17
2019-01-23T00:16:58.389Z,19.03
2019-01-23T00:19:31.472Z,17.60
2019-01-23T00:22:04.671Z,26.87
2019-01-23T00:24:37.936Z,20.93
2019-01-23T00:27:18.343Z,21.00
2019-01-23T00:29:51.968Z,18.20
2019-01-23T00:32:25.198Z,23.62
2019-01-23T00:34:59.858Z,21.10
2019-01-23T00:37:34.139Z,20.57
2019-01-23T00:40:08.181Z,18.53
2019-01-23T00:42:41.151Z,17.33
2019-01-23T00:45:14.946Z,28.70
2019-01-23T00:47:48.134Z,15.13
2019-01-23T00:50:22.722Z,18.30
2019-01-23T00:52:55.865Z,17.70
2019-01-23T00:55:29.107Z,17.77
2019-01-23T00:58:02.219Z,21.37
2019-01-23T01:00:35.464Z,18.90
2019-01-23T01:03:10.574Z,22.23
2019-01-23T01:05:43.785Z,20.43
2019-01-23T01:08:17.149Z,19.70
2019-01-23T01:10:50.316Z,22.33
2019-01-23T01:13:23.751Z,17.77
2019-01-23T01:15:58.257Z,19.63
2019-01-23T01:18:31.702Z,21.07
2019-01-23T01:21:04.988Z,18.60
2019-01-23T01:23:38.033Z,25.93
2019-01-23T01:26:11.930Z,25.37
2019-01-23T01:28:45.056Z,23.10
2019-01-23T01:31:18.894Z,29.77
2019-01-23T01:33:52.046Z,33.37
2019-01-23T01:36:25.354Z,26.00
2019-01-23T01:38:58.689Z,41.17
2019-01-23T01:41:31.886Z,35.50
2019-01-23T01:44:06.327Z,38.07
2019-01-23T01:46:39.656Z,33.23
2019-01-23T01:49:12.760Z,27.33
2019-01-23T01:51:46.043Z,26.77
2019-01-23T01:54:19.102Z,29.47
2019-01-23T01:56:52.373Z,24.93
2019-01-23T01:59:25.367Z,27.40
2019-01-23T02:01:58.573Z,22.17
2019-01-23T02:04:31.734Z,24.20
2019-01-23T02:07:04.876Z,18.20
2019-01-23T02:09:38.300Z,24.07
2019-01-23T02:12:11.578Z,28.33
2019-01-23T02:14:44.695Z,54.47
2019-01-23T02:17:19.675Z,64.30
2019-01-23T02:19:52.808Z,54.83
2019-01-23T02:22:26.044Z,34.57
2019-01-23T02:24:59.184Z,25.90
2019-01-23T02:27:32.322Z,30.97
2019-01-23T02:30:05.589Z,31.13
2019-01-23T02:32:39.083Z,34.70
2019-01-23T02:35:12.647Z,27.57
2019-01-23T02:37:45.878Z,32.07
2019-01-23T02:40:23.377Z,19.33
2019-01-23T02:42:57.109Z,24.37
2019-01-23T02:45:30.300Z,24.72
2019-01-23T02:48:03.454Z,43.20
2019-01-23T02:50:36.611Z,28.10
2019-01-23T02:53:09.770Z,25.50
2019-01-23T02:55:42.839Z,57.33
2019-01-23T02:58:16.155Z,86.63
2019-01-23T03:00:49.122Z,72.77
2019-01-23T03:03:22.461Z,51.23
2019-01-23T03:05:55.812Z,43.70
2019-01-23T03:08:28.839Z,38.03
2019-01-23T03:11:02.596Z,39.13
2019-01-23T03:13:35.670Z,30.80
2019-01-23T03:16:08.926Z,32.17
2019-01-23T03:18:41.961Z,32.27
2019-01-23T03:21:16.093Z,34.23
2019-01-23T03:23:49.425Z,30.40
2019-01-23T03:26:22.633Z,28.77
2019-01-23T03:28:56.032Z,24.77
2019-01-23T03:31:29.187Z,27.07
2019-01-23T03:34:02.663Z,22.63
2019-01-23T03:36:36.917Z,21.90
2019-01-23T03:39:11.594Z,19.00
2019-01-23T03:41:44.596Z,24.02
2019-01-23T03:44:17.947Z,16.33
2019-01-23T03:46:50.973Z,21.47
2019-01-23T03:49:28.686Z,23.23
2019-01-23T03:52:01.863Z,20.40
2019-01-23T03:54:35.037Z,21.27
2019-01-23T03:57:08.331Z,19.93
2019-01-23T03:59:41.398Z,27.17
2019-01-23T04:02:14.540Z,21.00
2019-01-23T04:04:48.048Z,24.70
2019-01-23T04:07:21.026Z,26.33
2019-01-23T04:09:54.242Z,28.43
2019-01-23T04:12:27.371Z,31.27
2019-01-23T04:15:00.618Z,28.05
2019-01-23T04:17:34.291Z,24.73
2019-01-23T04:20:09.126Z,26.83
2019-01-23T04:22:42.234Z,23.93
2019-01-23T04:25:15.642Z,24.80
2019-01-23T04:27:48.801Z,22.20
2019-01-23T04:30:26.634Z,20.57
2019-01-23T04:32:59.683Z,17.17
2019-01-23T04:35:32.807Z,18.57
2019-01-23T04:38:05.966Z,18.03
2019-01-23T04:40:39.061Z,18.00
2019-01-23T04:43:12.433Z,18.40
2019-01-23T04:45:45.508Z,17.57
2019-01-23T04:48:18.686Z,18.23
2019-01-23T04:51:08.349Z,18.23
2019-01-23T04:53:43.807Z,16.23
2019-01-23T04:56:17.005Z,22.23
2019-01-23T04:58:50.402Z,21.02
2019-01-23T05:01:23.814Z,15.57
2019-01-23T05:03:58.309Z,14.87
2019-01-23T05:06:31.503Z,15.50
2019-01-23T05:09:04.842Z,14.90
2019-01-23T05:11:38.002Z,16.27
2019-01-23T05:14:11.112Z,15.90
2019-01-23T05:16:45.199Z,15.67
2019-01-23T05:19:18.561Z,16.27
2019-01-23T05:21:51.667Z,19.93
2019-01-23T05:24:24.769Z,17.07
2019-01-23T05:26:57.961Z,16.23
2019-01-23T05:29:31.016Z,19.97
2019-01-23T05:32:04.390Z,18.77
2019-01-23T05:34:37.826Z,15.57
2019-01-23T05:37:10.935Z,15.60
2019-01-23T05:39:44.920Z,17.50
2019-01-23T05:42:18.180Z,18.20
2019-01-23T05:44:51.251Z,18.73
2019-01-23T05:47:24.428Z,16.70
2019-01-23T05:49:57.474Z,15.67
2019-01-23T05:52:30.690Z,13.87
2019-01-23T05:55:03.825Z,16.37
2019-01-23T05:57:36.927Z,14.90
2019-01-23T06:00:12.346Z,14.27
2019-01-23T06:02:45.572Z,13.17
2019-01-23T06:05:19.022Z,16.45
2019-01-23T06:07:52.503Z,16.93
2019-01-23T06:10:25.538Z,16.57
2019-01-23T06:12:58.554Z,16.43
2019-01-23T06:15:31.865Z,15.87
2019-01-23T06:18:04.963Z,14.50
2019-01-23T06:20:38.089Z,16.30
2019-01-23T06:23:11.357Z,13.80
2019-01-23T06:25:45.887Z,15.23
2019-01-23T06:28:19.216Z,12.40
2019-01-23T06:30:52.606Z,15.83
2019-01-23T06:33:25.985Z,15.87
2019-01-23T06:35:59.391Z,16.00
2019-01-23T06:38:32.866Z,14.27
2019-01-23T06:41:06.498Z,13.37
2019-01-23T06:43:39.939Z,15.63
2019-01-23T06:46:13.503Z,19.73
2019-01-23T06:48:46.875Z,19.77
2019-01-23T06:51:20.222Z,14.53
2019-01-23T06:53:53.690Z,13.70
2019-01-23T06:56:27.172Z,15.40
2019-01-23T06:59:02.043Z,15.13
2019-01-23T07:01:35.679Z,16.10
2019-01-23T07:04:09.036Z,16.30
2019-01-23T07:06:42.513Z,20.60
2019-01-23T07:09:15.865Z,15.20
2019-01-23T07:11:49.371Z,14.80
2019-01-23T07:14:22.802Z,16.77
2019-01-23T07:16:56.286Z,12.93
2019-01-23T07:19:29.807Z,12.97
2019-01-23T07:22:03.201Z,12.82
2019-01-23T07:24:36.556Z,16.37
2019-01-23T07:27:09.981Z,14.23
2019-01-23T07:29:43.374Z,16.47
2019-01-23T07:32:16.808Z,14.60
2019-01-23T07:34:50.347Z,16.13
2019-01-23T07:37:23.812Z,16.40
2019-01-23T07:39:56.822Z,13.87
2019-01-23T07:42:29.921Z,16.57
2019-01-23T07:45:04.700Z,15.07
2019-01-23T07:47:37.954Z,17.47
2019-01-23T07:50:12.986Z,18.20
2019-01-23T07:52:46.234Z,18.40
2019-01-23T07:55:20.365Z,16.87
2019-01-23T07:57:53.546Z,19.33
2019-01-23T08:00:31.509Z,15.50
2019-01-23T08:03:03.100Z,18.07
2019-01-23T08:05:36.362Z,19.47
2019-01-23T08:08:09.810Z,18.37
2019-01-23T08:10:42.998Z,16.60
2019-01-23T08:13:16.484Z,17.67
2019-01-23T08:15:49.659Z,19.50
2019-01-23T08:18:22.935Z,21.10
2019-01-23T08:20:56.058Z,17.70
2019-01-23T08:23:29.225Z,16.60
2019-01-23T08:26:02.517Z,16.00
2019-01-23T08:28:35.621Z,15.67
2019-01-23T08:31:08.673Z,17.87
2019-01-23T08:33:41.951Z,18.63
2019-01-23T08:36:15.042Z,13.87
2019-01-23T08:38:48.524Z,17.43
2019-01-23T08:41:21.577Z,17.35
2019-01-23T08:43:54.651Z,14.83
2019-01-23T08:46:27.816Z,15.83
2019-01-23T08:49:02.236Z,15.00
2019-01-23T08:51:39.114Z,16.83
2019-01-23T08:54:12.202Z,16.37
2019-01-23T08:56:45.491Z,16.10
2019-01-23T08:59:18.597Z,16.37
2019-01-23T09:01:52.021Z,16.23
2019-01-23T09:04:25.526Z,16.13
2019-01-23T09:06:58.926Z,18.80
2019-01-23T09:09:32.507Z,17.60
2019-01-23T09:12:06.036Z,17.17
2019-01-23T09:14:40.983Z,17.40
2019-01-23T09:17:14.270Z,15.17
2019-01-23T09:19:47.718Z,14.93
2019-01-23T09:22:21.006Z,13.53
2019-01-23T09:24:54.489Z,14.23
2019-01-23T09:27:28.066Z,12.63
2019-01-23T09:30:01.569Z,15.80
2019-01-23T09:32:59.498Z,14.60
2019-01-23T09:36:28.041Z,13.73
2019-01-23T09:39:41.897Z,16.40
2019-01-23T09:42:49.788Z,14.43
2019-01-23T09:46:08.201Z,14.40
2019-01-23T09:49:25.775Z,15.98
2019-01-23T09:52:30.739Z,13.17
2019-01-23T09:55:03.778Z,15.57
2019-01-23T09:57:39.376Z,15.43
2019-01-23T10:00:16.043Z,15.10
2019-01-23T10:02:50.220Z,16.87
2019-01-23T10:05:23.617Z,14.80
2019-01-23T10:07:56.623Z,14.53
2019-01-23T10:10:29.769Z,14.57
2019-01-23T10:13:02.978Z,15.57
2019-01-23T10:15:43.267Z,15.57
2019-01-23T10:18:16.358Z,15.77
2019-01-23T10:20:49.737Z,17.67
2019-01-23T10:23:22.923Z,20.47
2019-01-23T10:25:56.064Z,16.97
2019-01-23T10:28:29.102Z,16.87
2019-01-23T10:31:06.611Z,16.80
2019-01-23T10:33:36.903Z,18.60
2019-01-23T10:36:10.168Z,19.17
2019-01-23T10:38:43.602Z,17.77
2019-01-23T10:41:17.141Z,16.03
2019-01-23T10:43:50.626Z,21.40
2019-01-23T10:46:24.050Z,17.53
2019-01-23T10:48:58.589Z,26.27
2019-01-23T10:51:31.765Z,23.60
2019-01-23T10:54:04.825Z,26.03
2019-01-23T10:56:38.061Z,26.97
2019-01-23T10:59:11.602Z,35.73
2019-01-23T11:01:44.752Z,30.00
2019-01-23T11:04:18.048Z,28.93
2019-01-23T11:06:51.196Z,33.30
2019-01-23T11:09:24.376Z,30.37
2019-01-23T11:11:57.661Z,31.67
2019-01-23T11:14:30.810Z,29.93
2019-01-23T11:17:04.136Z,45.03
2019-01-23T11:19:37.405Z,24.40
2019-01-23T11:22:10.721Z,35.87
2019-01-23T11:24:43.779Z,32.37
2019-01-23T11:27:18.126Z,27.80
2019-01-23T11:29:51.196Z,32.27
2019-01-23T11:32:24.539Z,32.87
2019-01-23T11:34:57.541Z,26.60
2019-01-23T11:37:35.683Z,24.60
2019-01-23T11:40:14.491Z,27.80
2019-01-23T11:42:47.808Z,31.47
2019-01-23T11:45:20.972Z,30.87
2019-01-23T11:47:54.116Z,24.07
2019-01-23T11:50:28.121Z,32.75
2019-01-23T11:53:02.038Z,24.00
2019-01-23T11:55:35.309Z,30.33
2019-01-23T11:58:09.249Z,28.17
2019-01-23T12:00:42.631Z,24.13
2019-01-23T12:03:20.875Z,24.80
2019-01-23T12:05:51.044Z,31.93
2019-01-23T12:08:26.295Z,24.53
2019-01-23T12:11:00.474Z,26.73
2019-01-23T12:13:33.662Z,26.57
2019-01-23T12:16:07.493Z,26.53
2019-01-23T12:18:41.105Z,25.30
2019-01-23T12:21:14.803Z,25.83
2019-01-23T12:23:48.075Z,29.77
2019-01-23T12:26:30.034Z,29.73
2019-01-23T12:29:03.430Z,31.47
2019-01-23T12:31:36.699Z,30.50
2019-01-23T12:34:11.306Z,29.23
2019-01-23T12:36:44.780Z,27.03
2019-01-23T12:39:19.182Z,33.17
2019-01-23T12:41:55.318Z,37.40
2019-01-23T12:44:28.502Z,30.10
2019-01-23T12:47:02.670Z,31.47
2019-01-23T12:49:37.252Z,28.20
2019-01-23T12:52:10.497Z,32.07
2019-01-23T12:54:43.710Z,32.50
2019-01-23T12:57:17.835Z,33.53
2019-01-23T12:59:52.708Z,32.10
2019-01-23T13:02:25.933Z,34.83
2019-01-23T13:04:59.433Z,33.30
2019-01-23T13:07:43.443Z,34.50
2019-01-23T13:10:19.438Z,33.63
2019-01-23T13:12:54.123Z,31.97
2019-01-23T13:15:33.834Z,27.73
2019-01-23T13:18:07.600Z,33.07
2019-01-23T13:20:40.668Z,33.23
2019-01-23T13:23:19.457Z,36.20
2019-01-23T13:25:48.125Z,31.87
2019-01-23T13:28:20.992Z,35.03
2019-01-23T13:30:54.062Z,41.33
2019-01-23T13:33:28.628Z,44.13
2019-01-23T13:36:01.833Z,33.47
2019-01-23T13:38:57.810Z,43.17
2019-01-23T13:41:49.907Z,39.17
2019-01-23T13:44:44.414Z,37.80
2019-01-23T13:47:31.977Z,39.07
2019-01-23T13:50:16.720Z,38.83
2019-01-23T13:52:51.546Z,36.40
2019-01-23T13:55:30.931Z,39.10
2019-01-23T13:58:05.564Z,41.40
2019-01-23T14:00:42.218Z,40.27
2019-01-23T14:03:17.380Z,42.00
2019-01-23T14:05:51.976Z,46.40
2019-01-23T14:08:24.761Z,50.30
2019-01-23T14:10:58.111Z,37.67
2019-01-23T14:13:31.937Z,37.07
2019-01-23T14:16:13.210Z,44.97
2019-01-23T14:18:46.662Z,38.80
2019-01-23T14:21:19.847Z,47.57
2019-01-23T14:23:53.410Z,45.50
2019-01-23T14:26:26.416Z,40.70
2019-01-23T14:29:01.873Z,41.13
2019-01-23T14:31:35.035Z,36.97
2019-01-23T14:34:08.246Z,38.10
2019-01-23T14:36:41.260Z,48.73
2019-01-23T14:39:14.611Z,47.47
2019-01-23T14:41:48.816Z,41.30
2019-01-23T14:44:22.190Z,40.67
2019-01-23T14:47:01.363Z,38.40
2019-01-23T14:49:34.621Z,50.80
2019-01-23T14:52:10.344Z,46.13
2019-01-23T14:54:44.516Z,41.03
2019-01-23T14:57:18.807Z,39.97
2019-01-23T14:59:53.182Z,44.20
2019-01-23T15:02:27.109Z,47.27
2019-01-23T15:05:02.915Z,43.80
2019-01-23T15:07:36.059Z,43.83
2019-01-23T15:10:19.486Z,45.57
2019-01-23T15:12:52.847Z,42.40
2019-01-23T15:15:26.102Z,46.20
2019-01-23T15:18:00.757Z,46.90
2019-01-23T15:20:36.631Z,48.60
2019-01-23T15:23:13.816Z,51.10
2019-01-23T15:25:47.042Z,49.07
2019-01-23T15:28:21.688Z,57.10
2019-01-23T15:30:54.812Z,45.67
2019-01-23T15:33:28.004Z,49.40
2019-01-23T15:36:01.441Z,53.53
2019-01-23T15:38:34.983Z,48.70
2019-01-23T15:41:08.327Z,47.23
2019-01-23T15:43:42.458Z,45.77
2019-01-23T15:46:15.492Z,51.67
2019-01-23T15:48:48.503Z,49.00
2019-01-23T15:51:22.646Z,45.77
2019-01-23T15:53:55.988Z,55.47
2019-01-23T15:56:42.998Z,46.97
2019-01-23T15:59:22.289Z,41.97
2019-01-23T16:01:55.925Z,44.37
2019-01-23T16:04:29.112Z,43.17
2019-01-23T16:07:02.262Z,40.43
2019-01-23T16:09:35.333Z,41.20
2019-01-23T16:12:08.622Z,39.90
2019-01-23T16:14:44.330Z,33.63
2019-01-23T16:17:17.642Z,33.70
2019-01-23T16:19:51.200Z,36.90
2019-01-23T16:22:24.639Z,34.07
2019-01-23T16:24:58.288Z,17.83
2019-01-23T16:27:35.337Z,17.60
2019-01-23T16:30:11.949Z,14.77
2019-01-23T16:32:46.404Z,15.80
2019-01-23T16:35:21.173Z,18.80
2019-01-23T16:37:56.017Z,20.60
2019-01-23T16:40:47.756Z,22.00
2019-01-23T16:43:21.226Z,23.13
2019-01-23T16:45:56.641Z,19.35
2019-01-23T16:48:29.919Z,22.00
2019-01-23T16:51:03.116Z,24.20
2019-01-23T16:53:36.275Z,26.17
2019-01-23T16:56:12.727Z,28.83
2019-01-23T16:58:45.912Z,31.93
2019-01-23T17:01:19.093Z,29.43
2019-01-23T17:03:52.401Z,27.00
2019-01-23T17:06:27.589Z,25.37
2019-01-23T17:09:01.203Z,24.12
2019-01-23T17:11:35.255Z,25.27
2019-01-23T17:14:08.476Z,25.93
2019-01-23T17:16:41.661Z,23.03
2019-01-23T17:19:14.886Z,23.77
2019-01-23T17:21:49.603Z,23.23
2019-01-23T17:24:22.826Z,24.47
2019-01-23T17:26:55.985Z,23.30
2019-01-23T17:29:30.763Z,20.13
2019-01-23T17:32:06.168Z,23.13
2019-01-23T17:34:40.592Z,23.63
2019-01-23T17:37:16.229Z,22.60
2019-01-23T17:39:49.623Z,22.93
2019-01-23T17:42:27.106Z,19.63
2019-01-23T17:45:00.443Z,18.40
2019-01-23T17:47:35.334Z,22.83
2019-01-23T17:50:12.118Z,21.15
2019-01-23T17:52:52.196Z,18.07
2019-01-23T17:55:30.846Z,21.77
2019-01-23T17:58:04.741Z,17.47
2019-01-23T18:00:42.964Z,19.17
2019-01-23T18:03:18.241Z,15.50
2019-01-23T18:05:54.206Z,16.20
2019-01-23T18:08:28.134Z,17.53
2019-01-23T18:11:03.971Z,17.03
2019-01-23T18:13:38.383Z,19.17
2019-01-23T18:16:15.020Z,21.87
2019-01-23T18:18:49.285Z,22.10
2019-01-23T18:21:22.966Z,18.30
2019-01-23T18:23:58.353Z,16.47
2019-01-23T18:26:37.540Z,22.50
2019-01-23T18:29:09.402Z,19.57
2019-01-23T18:31:52.242Z,20.43
2019-01-23T18:35:07.022Z,17.43
2019-01-23T18:38:09.504Z,18.70
2019-01-23T18:41:13.258Z,18.70
2019-01-23T18:44:30.520Z,16.20
2019-01-23T18:47:25.554Z,21.90
2019-01-23T18:50:40.368Z,18.25
2019-01-23T18:53:16.617Z,19.30
2019-01-23T18:55:51.343Z,17.98
2019-01-23T18:58:24.475Z,19.05
2019-01-23T19:00:58.030Z,18.57
2019-01-23T19:03:32.935Z,18.55
2019-01-23T19:06:14.837Z,17.77
2019-01-23T19:08:48.456Z,18.67
2019-01-23T19:11:22.729Z,18.23
2019-01-23T19:14:01.239Z,21.85
2019-01-23T19:16:34.242Z,18.77
2019-01-23T19:19:10.420Z,22.35
2019-01-23T19:21:44.192Z,17.45
2019-01-23T19:24:22.294Z,18.85
2019-01-23T19:26:56.208Z,18.70
2019-01-23T19:29:29.751Z,20.70
2019-01-23T19:32:02.822Z,17.87
2019-01-23T19:34:36.156Z,21.97
2019-01-23T19:37:14.738Z,22.58
2019-01-23T19:39:50.760Z,23.00
2019-01-23T19:42:27.897Z,20.15
2019-01-23T19:45:02.391Z,21.07
2019-01-23T19:47:38.037Z,21.33
2019-01-23T19:50:13.070Z,20.27
2019-01-23T19:52:47.595Z,19.37
2019-01-23T19:55:22.453Z,17.75
2019-01-23T19:57:56.960Z,27.05
2019-01-23T20:00:30.169Z,18.60
2019-01-23T20:03:08.503Z,21.05
2019-01-23T20:05:42.982Z,20.65
2019-01-23T20:08:16.624Z,18.02
2019-01-23T20:10:49.710Z,20.88
2019-01-23T20:13:31.182Z,20.02
2019-01-23T20:16:10.984Z,18.45
2019-01-23T20:18:44.997Z,20.95
2019-01-23T20:21:18.193Z,22.67
2019-01-23T20:23:51.963Z,18.75
2019-01-23T20:26:27.476Z,21.73
2019-01-23T20:29:00.751Z,23.15
2019-01-23T20:31:35.588Z,19.92
2019-01-23T20:34:11.571Z,21.90
2019-01-23T20:36:48.866Z,22.73
2019-01-23T20:39:25.427Z,20.20
2019-01-23T20:45:43.620Z,22.15
2019-01-23T20:48:16.730Z,20.10
2019-01-23T20:50:51.326Z,22.07
2019-01-23T20:53:24.502Z,19.87
2019-01-23T20:55:57.761Z,19.92
2019-01-23T20:58:30.996Z,20.37
2019-01-23T21:01:05.868Z,17.50
2019-01-23T21:03:39.143Z,22.32
2019-01-23T21:06:15.145Z,17.57
2019-01-23T21:08:48.460Z,20.02
2019-01-23T21:11:21.424Z,23.10
2019-01-23T21:13:54.534Z,21.52
2019-01-23T21:16:27.626Z,20.65
2019-01-23T21:19:00.682Z,21.60
2019-01-23T21:21:33.836Z,19.90
2019-01-23T21:24:07.046Z,19.15
2019-01-23T21:26:40.391Z,22.37
2019-01-23T21:29:13.436Z,22.13
2019-01-23T21:31:46.550Z,23.32
2019-01-23T21:34:19.942Z,21.93
2019-01-23T21:36:53.394Z,22.15
2019-01-23T21:39:26.294Z,20.50
2019-01-23T21:41:59.490Z,24.77
2019-01-23T21:44:32.887Z,22.20
2019-01-23T21:47:09.434Z,27.67
2019-01-23T21:49:42.579Z,18.95
2019-01-23T21:52:15.725Z,24.10
2019-01-23T21:54:48.892Z,21.82
2019-01-23T21:57:23.337Z,21.17
2019-01-23T22:00:02.986Z,24.17
2019-01-23T22:02:36.180Z,21.55
2019-01-23T22:05:09.748Z,24.57
2019-01-23T22:07:42.918Z,23.42
2019-01-23T22:10:16.802Z,22.15
2019-01-23T22:12:51.281Z,24.30
2019-01-23T22:15:25.603Z,20.35
2019-01-23T22:17:58.592Z,22.02
2019-01-23T22:20:31.834Z,24.82
2019-01-23T22:23:06.148Z,26.05
2019-01-23T22:25:40.384Z,25.08
2019-01-23T22:28:13.666Z,21.65
2019-01-23T22:30:46.837Z,22.00
2019-01-23T22:33:20.038Z,26.85
2019-01-23T22:35:53.466Z,25.17
2019-01-23T22:38:26.657Z,25.75
2019-01-23T22:40:59.871Z,25.27
2019-01-23T22:43:32.856Z,25.32
2019-01-23T22:46:07.729Z,25.17
2019-01-23T22:48:40.986Z,23.77
2019-01-23T22:51:14.042Z,24.77
2019-01-23T22:53:49.119Z,28.83
2019-01-23T22:56:23.181Z,24.37
2019-01-23T22:58:56.890Z,23.10
2019-01-23T23:01:32.177Z,26.95
2019-01-23T23:04:06.049Z,28.23
2019-01-23T23:06:39.191Z,21.73
2019-01-23T23:09:13.154Z,23.00
2019-01-23T23:11:47.894Z,24.80
2019-01-23T23:14:21.040Z,24.73
2019-01-23T23:16:54.616Z,30.27
2019-01-23T23:19:27.656Z,32.00
2019-01-23T23:22:00.676Z,30.40
2019-01-23T23:24:35.434Z,27.90
2019-01-23T23:27:08.642Z,34.97
2019-01-23T23:29:41.748Z,34.80
2019-01-23T23:32:14.836Z,29.48
2019-01-23T23:34:48.248Z,31.00
2019-01-23T23:37:21.440Z,32.60
2019-01-23T23:39:54.707Z,32.33
2019-01-23T23:42:27.840Z,27.60
2019-01-23T23:47:37.664Z,30.03
2019-01-23T23:50:12.489Z,31.43
2019-01-23T23:52:45.847Z,32.65
2019-01-23T23:55:19.157Z,36.03
2019-01-23T23:57:52.526Z,38.23
